sensor_id;sensor_type;location;lat;lon;timestamp;P1;durP1;ratioP1;P2;durP2;ratioP2
24153;SDS011;12312;53.362;-1.518;2024-01-11T00:02:25;3.90;;;1.90;;
24153;SDS011;12312;53.362;-1.518;2024-01-11T00:05:09;5.43;;;1.50;;
24153;SDS011;12312;53.362;-1.518;2024-01-11T00:07:53;6.13;;;1.63;;
24153;SDS011;12312;53.362;-1.518;2024-01-11T00:10:37;4.88;;;1.90;;
24153;SDS011;12312;53.362;-1.518;2024-01-11T00:13:21;7.13;;;2.13;;
24153;SDS011;12312;53.362;-1.518;2024-01-11T00:16:05;3.75;;;1.65;;
24153;SDS011;12312;53.362;-1.518;2024-01-11T00:18:49;6.25;;;2.03;;
24153;SDS011;12312;53.362;-1.518;2024-01-11T00:21:32;11.60;;;1.85;;
24153;SDS011;12312;53.362;-1.518;2024-01-11T00:24:16;7.45;;;2.45;;
24153;SDS011;12312;53.362;-1.518;2024-01-11T00:27:00;7.18;;;2.13;;
24153;SDS011;12312;53.362;-1.518;2024-01-11T00:29:44;7.30;;;1.85;;
24153;SDS011;12312;53.362;-1.518;2024-01-11T00:32:28;10.50;;;1.73;;
24153;SDS011;12312;53.362;-1.518;2024-01-11T00:35:12;3.67;;;1.92;;
24153;SDS011;12312;53.362;-1.518;2024-01-11T00:37:56;7.03;;;1.38;;
24153;SDS011;12312;53.362;-1.518;2024-01-11T00:40:40;12.30;;;1.95;;
24153;SDS011;12312;53.362;-1.518;2024-01-11T00:43:24;3.65;;;1.42;;
24153;SDS011;12312;53.362;-1.518;2024-01-11T00:46:08;3.78;;;1.77;;
24153;SDS011;12312;53.362;-1.518;2024-01-11T00:48:52;3.42;;;1.02;;
24153;SDS011;12312;53.362;-1.518;2024-01-11T00:51:36;5.40;;;1.70;;
24153;SDS011;12312;53.362;-1.518;2024-01-11T00:54:20;3.05;;;1.40;;
24153;SDS011;12312;53.362;-1.518;2024-01-11T00:57:03;3.92;;;1.10;;
24153;SDS011;12312;53.362;-1.518;2024-01-11T00:59:48;6.10;;;2.08;;
24153;SDS011;12312;53.362;-1.518;2024-01-11T01:02:32;5.70;;;1.63;;
24153;SDS011;12312;53.362;-1.518;2024-01-11T01:05:16;5.72;;;1.48;;
24153;SDS011;12312;53.362;-1.518;2024-01-11T01:08:00;3.22;;;1.63;;
24153;SDS011;12312;53.362;-1.518;2024-01-11T01:10:44;7.40;;;1.55;;
24153;SDS011;12312;53.362;-1.518;2024-01-11T01:13:27;2.90;;;1.58;;
24153;SDS011;12312;53.362;-1.518;2024-01-11T01:16:12;3.47;;;1.75;;
24153;SDS011;12312;53.362;-1.518;2024-01-11T01:18:55;7.05;;;1.75;;
24153;SDS011;12312;53.362;-1.518;2024-01-11T01:21:39;2.08;;;1.05;;
24153;SDS011;12312;53.362;-1.518;2024-01-11T01:24:24;5.97;;;1.67;;
24153;SDS011;12312;53.362;-1.518;2024-01-11T01:27:08;2.38;;;1.02;;
24153;SDS011;12312;53.362;-1.518;2024-01-11T01:29:52;2.20;;;1.23;;
24153;SDS011;12312;53.362;-1.518;2024-01-11T01:32:36;4.05;;;1.10;;
24153;SDS011;12312;53.362;-1.518;2024-01-11T01:35:19;5.90;;;1.48;;
24153;SDS011;12312;53.362;-1.518;2024-01-11T01:38:03;2.30;;;0.70;;
24153;SDS011;12312;53.362;-1.518;2024-01-11T01:40:47;6.55;;;1.38;;
24153;SDS011;12312;53.362;-1.518;2024-01-11T01:43:32;1.85;;;0.90;;
24153;SDS011;12312;53.362;-1.518;2024-01-11T01:46:18;6.07;;;1.52;;
24153;SDS011;12312;53.362;-1.518;2024-01-11T01:49:03;5.18;;;1.63;;
24153;SDS011;12312;53.362;-1.518;2024-01-11T01:51:47;7.18;;;1.15;;
24153;SDS011;12312;53.362;-1.518;2024-01-11T01:54:31;4.35;;;1.13;;
24153;SDS011;12312;53.362;-1.518;2024-01-11T01:57:15;5.60;;;1.48;;
24153;SDS011;12312;53.362;-1.518;2024-01-11T02:00:00;3.10;;;1.70;;
24153;SDS011;12312;53.362;-1.518;2024-01-11T02:02:44;1.10;;;1.00;;
24153;SDS011;12312;53.362;-1.518;2024-01-11T02:05:29;5.07;;;1.47;;
24153;SDS011;12312;53.362;-1.518;2024-01-11T02:08:15;3.10;;;1.40;;
24153;SDS011;12312;53.362;-1.518;2024-01-11T02:10:59;3.65;;;1.58;;
24153;SDS011;12312;53.362;-1.518;2024-01-11T02:13:44;7.15;;;1.92;;
24153;SDS011;12312;53.362;-1.518;2024-01-11T02:16:29;7.45;;;1.58;;
24153;SDS011;12312;53.362;-1.518;2024-01-11T02:19:13;2.80;;;1.25;;
24153;SDS011;12312;53.362;-1.518;2024-01-11T02:21:58;5.88;;;1.65;;
24153;SDS011;12312;53.362;-1.518;2024-01-11T02:27:28;5.78;;;1.75;;
24153;SDS011;12312;53.362;-1.518;2024-01-11T02:30:12;5.28;;;1.38;;
24153;SDS011;12312;53.362;-1.518;2024-01-11T02:32:56;5.18;;;1.50;;
24153;SDS011;12312;53.362;-1.518;2024-01-11T02:35:41;2.60;;;1.15;;
24153;SDS011;12312;53.362;-1.518;2024-01-11T02:38:26;4.03;;;1.17;;
24153;SDS011;12312;53.362;-1.518;2024-01-11T02:41:11;2.38;;;0.88;;
24153;SDS011;12312;53.362;-1.518;2024-01-11T02:43:55;1.42;;;0.88;;
24153;SDS011;12312;53.362;-1.518;2024-01-11T02:46:39;3.63;;;1.15;;
24153;SDS011;12312;53.362;-1.518;2024-01-11T02:49:23;1.85;;;1.05;;
24153;SDS011;12312;53.362;-1.518;2024-01-11T02:52:07;7.82;;;0.95;;
24153;SDS011;12312;53.362;-1.518;2024-01-11T02:54:51;6.07;;;1.40;;
24153;SDS011;12312;53.362;-1.518;2024-01-11T02:57:35;8.40;;;1.27;;
24153;SDS011;12312;53.362;-1.518;2024-01-11T03:00:19;2.38;;;1.13;;
24153;SDS011;12312;53.362;-1.518;2024-01-11T03:03:03;2.05;;;1.42;;
24153;SDS011;12312;53.362;-1.518;2024-01-11T03:05:47;5.25;;;1.42;;
24153;SDS011;12312;53.362;-1.518;2024-01-11T03:08:31;2.83;;;1.20;;
24153;SDS011;12312;53.362;-1.518;2024-01-11T03:11:15;4.38;;;1.33;;
24153;SDS011;12312;53.362;-1.518;2024-01-11T03:13:59;12.48;;;1.90;;
24153;SDS011;12312;53.362;-1.518;2024-01-11T03:16:43;2.17;;;1.02;;
24153;SDS011;12312;53.362;-1.518;2024-01-11T03:19:27;3.22;;;1.27;;
24153;SDS011;12312;53.362;-1.518;2024-01-11T03:22:12;4.95;;;1.33;;
24153;SDS011;12312;53.362;-1.518;2024-01-11T03:24:56;4.90;;;1.40;;
24153;SDS011;12312;53.362;-1.518;2024-01-11T03:27:40;4.28;;;1.25;;
24153;SDS011;12312;53.362;-1.518;2024-01-11T03:30:24;1.63;;;1.10;;
24153;SDS011;12312;53.362;-1.518;2024-01-11T03:33:08;4.47;;;1.23;;
24153;SDS011;12312;53.362;-1.518;2024-01-11T03:35:52;1.80;;;0.95;;
24153;SDS011;12312;53.362;-1.518;2024-01-11T03:38:36;1.73;;;1.15;;
24153;SDS011;12312;53.362;-1.518;2024-01-11T03:41:21;3.60;;;1.10;;
24153;SDS011;12312;53.362;-1.518;2024-01-11T03:44:05;4.30;;;1.27;;
24153;SDS011;12312;53.362;-1.518;2024-01-11T03:46:49;4.00;;;1.42;;
24153;SDS011;12312;53.362;-1.518;2024-01-11T03:49:33;2.10;;;1.63;;
24153;SDS011;12312;53.362;-1.518;2024-01-11T03:52:16;3.50;;;2.33;;
24153;SDS011;12312;53.362;-1.518;2024-01-11T03:55:01;2.60;;;1.42;;
24153;SDS011;12312;53.362;-1.518;2024-01-11T03:57:44;1.92;;;1.48;;
24153;SDS011;12312;53.362;-1.518;2024-01-11T04:00:28;4.60;;;1.85;;
24153;SDS011;12312;53.362;-1.518;2024-01-11T04:03:12;3.63;;;1.60;;
24153;SDS011;12312;53.362;-1.518;2024-01-11T04:05:56;3.42;;;1.33;;
24153;SDS011;12312;53.362;-1.518;2024-01-11T04:08:40;2.15;;;1.27;;
24153;SDS011;12312;53.362;-1.518;2024-01-11T04:11:28;6.15;;;2.08;;
24153;SDS011;12312;53.362;-1.518;2024-01-11T04:14:12;2.70;;;1.80;;
24153;SDS011;12312;53.362;-1.518;2024-01-11T04:16:56;9.00;;;1.88;;
24153;SDS011;12312;53.362;-1.518;2024-01-11T04:19:40;4.47;;;2.10;;
24153;SDS011;12312;53.362;-1.518;2024-01-11T04:22:24;3.53;;;1.83;;
24153;SDS011;12312;53.362;-1.518;2024-01-11T04:25:08;4.05;;;1.92;;
24153;SDS011;12312;53.362;-1.518;2024-01-11T04:27:52;1.77;;;1.30;;
24153;SDS011;12312;53.362;-1.518;2024-01-11T04:30:36;3.40;;;1.10;;
24153;SDS011;12312;53.362;-1.518;2024-01-11T04:33:20;2.75;;;1.58;;
24153;SDS011;12312;53.362;-1.518;2024-01-11T04:36:04;3.83;;;1.88;;
24153;SDS011;12312;53.362;-1.518;2024-01-11T04:38:49;2.83;;;1.75;;
24153;SDS011;12312;53.362;-1.518;2024-01-11T04:41:35;5.22;;;1.50;;
24153;SDS011;12312;53.362;-1.518;2024-01-11T04:44:19;5.45;;;1.50;;
24153;SDS011;12312;53.362;-1.518;2024-01-11T04:47:02;2.60;;;1.80;;
24153;SDS011;12312;53.362;-1.518;2024-01-11T04:49:47;3.05;;;1.77;;
24153;SDS011;12312;53.362;-1.518;2024-01-11T04:52:30;4.25;;;2.00;;
24153;SDS011;12312;53.362;-1.518;2024-01-11T04:55:14;2.35;;;1.42;;
24153;SDS011;12312;53.362;-1.518;2024-01-11T04:57:58;3.47;;;1.63;;
24153;SDS011;12312;53.362;-1.518;2024-01-11T05:00:42;4.78;;;1.63;;
24153;SDS011;12312;53.362;-1.518;2024-01-11T05:03:27;3.72;;;1.85;;
24153;SDS011;12312;53.362;-1.518;2024-01-11T05:06:18;3.80;;;2.03;;
24153;SDS011;12312;53.362;-1.518;2024-01-11T05:09:03;2.88;;;1.27;;
24153;SDS011;12312;53.362;-1.518;2024-01-11T05:11:48;1.77;;;1.58;;
24153;SDS011;12312;53.362;-1.518;2024-01-11T05:14:32;2.45;;;1.63;;
24153;SDS011;12312;53.362;-1.518;2024-01-11T05:17:16;3.53;;;1.98;;
24153;SDS011;12312;53.362;-1.518;2024-01-11T05:20:00;3.72;;;1.52;;
24153;SDS011;12312;53.362;-1.518;2024-01-11T05:22:44;2.17;;;1.38;;
24153;SDS011;12312;53.362;-1.518;2024-01-11T05:25:29;2.25;;;1.42;;
24153;SDS011;12312;53.362;-1.518;2024-01-11T05:28:15;5.65;;;1.45;;
24153;SDS011;12312;53.362;-1.518;2024-01-11T05:30:59;5.65;;;1.40;;
24153;SDS011;12312;53.362;-1.518;2024-01-11T05:33:43;3.45;;;1.42;;
24153;SDS011;12312;53.362;-1.518;2024-01-11T05:36:27;3.15;;;1.48;;
24153;SDS011;12312;53.362;-1.518;2024-01-11T05:39:11;1.30;;;1.17;;
24153;SDS011;12312;53.362;-1.518;2024-01-11T05:41:54;5.10;;;2.25;;
24153;SDS011;12312;53.362;-1.518;2024-01-11T05:44:39;2.78;;;1.75;;
24153;SDS011;12312;53.362;-1.518;2024-01-11T05:47:22;3.08;;;1.80;;
24153;SDS011;12312;53.362;-1.518;2024-01-11T05:50:07;1.58;;;1.45;;
24153;SDS011;12312;53.362;-1.518;2024-01-11T05:52:51;5.70;;;1.55;;
24153;SDS011;12312;53.362;-1.518;2024-01-11T05:55:35;2.88;;;1.63;;
24153;SDS011;12312;53.362;-1.518;2024-01-11T05:58:19;10.50;;;1.80;;
24153;SDS011;12312;53.362;-1.518;2024-01-11T06:01:03;5.35;;;1.90;;
24153;SDS011;12312;53.362;-1.518;2024-01-11T06:03:47;4.15;;;1.85;;
24153;SDS011;12312;53.362;-1.518;2024-01-11T06:06:31;2.47;;;1.20;;
24153;SDS011;12312;53.362;-1.518;2024-01-11T06:09:15;4.03;;;1.90;;
24153;SDS011;12312;53.362;-1.518;2024-01-11T06:11:59;3.72;;;1.85;;
24153;SDS011;12312;53.362;-1.518;2024-01-11T06:14:43;2.50;;;1.85;;
24153;SDS011;12312;53.362;-1.518;2024-01-11T06:17:27;4.47;;;2.60;;
24153;SDS011;12312;53.362;-1.518;2024-01-11T06:20:11;4.53;;;2.72;;
24153;SDS011;12312;53.362;-1.518;2024-01-11T06:22:55;3.42;;;2.30;;
24153;SDS011;12312;53.362;-1.518;2024-01-11T06:25:39;7.40;;;2.92;;
24153;SDS011;12312;53.362;-1.518;2024-01-11T06:28:23;4.40;;;2.60;;
24153;SDS011;12312;53.362;-1.518;2024-01-11T06:31:09;9.82;;;2.33;;
24153;SDS011;12312;53.362;-1.518;2024-01-11T06:33:53;11.10;;;2.38;;
24153;SDS011;12312;53.362;-1.518;2024-01-11T06:36:37;4.45;;;2.20;;
24153;SDS011;12312;53.362;-1.518;2024-01-11T06:39:21;4.55;;;2.22;;
24153;SDS011;12312;53.362;-1.518;2024-01-11T06:42:05;4.55;;;2.47;;
24153;SDS011;12312;53.362;-1.518;2024-01-11T06:44:49;7.47;;;1.90;;
24153;SDS011;12312;53.362;-1.518;2024-01-11T06:47:33;4.40;;;1.70;;
24153;SDS011;12312;53.362;-1.518;2024-01-11T06:50:17;7.93;;;2.00;;
24153;SDS011;12312;53.362;-1.518;2024-01-11T06:53:01;5.15;;;2.13;;
24153;SDS011;12312;53.362;-1.518;2024-01-11T06:55:45;5.35;;;1.73;;
24153;SDS011;12312;53.362;-1.518;2024-01-11T06:58:31;4.45;;;1.38;;
24153;SDS011;12312;53.362;-1.518;2024-01-11T07:01:15;8.60;;;1.55;;
24153;SDS011;12312;53.362;-1.518;2024-01-11T07:03:58;13.23;;;1.80;;
24153;SDS011;12312;53.362;-1.518;2024-01-11T07:06:42;3.80;;;1.08;;
24153;SDS011;12312;53.362;-1.518;2024-01-11T07:09:26;4.03;;;1.45;;
24153;SDS011;12312;53.362;-1.518;2024-01-11T07:12:10;11.15;;;2.10;;
24153;SDS011;12312;53.362;-1.518;2024-01-11T07:14:54;3.75;;;1.23;;
24153;SDS011;12312;53.362;-1.518;2024-01-11T07:17:38;24.20;;;3.42;;
24153;SDS011;12312;53.362;-1.518;2024-01-11T07:20:22;3.28;;;1.23;;
24153;SDS011;12312;53.362;-1.518;2024-01-11T07:23:06;5.60;;;1.15;;
24153;SDS011;12312;53.362;-1.518;2024-01-11T07:25:50;3.45;;;1.23;;
24153;SDS011;12312;53.362;-1.518;2024-01-11T07:28:34;3.78;;;1.30;;
24153;SDS011;12312;53.362;-1.518;2024-01-11T07:31:20;5.70;;;1.20;;
24153;SDS011;12312;53.362;-1.518;2024-01-11T07:34:04;6.47;;;1.17;;
24153;SDS011;12312;53.362;-1.518;2024-01-11T07:36:48;2.00;;;1.35;;
24153;SDS011;12312;53.362;-1.518;2024-01-11T07:39:32;2.92;;;1.50;;
24153;SDS011;12312;53.362;-1.518;2024-01-11T07:42:16;3.83;;;1.85;;
24153;SDS011;12312;53.362;-1.518;2024-01-11T07:45:00;6.95;;;1.50;;
24153;SDS011;12312;53.362;-1.518;2024-01-11T07:47:44;2.45;;;1.33;;
24153;SDS011;12312;53.362;-1.518;2024-01-11T07:50:29;5.15;;;2.05;;
24153;SDS011;12312;53.362;-1.518;2024-01-11T07:53:13;8.07;;;1.98;;
24153;SDS011;12312;53.362;-1.518;2024-01-11T07:55:57;5.85;;;1.65;;
24153;SDS011;12312;53.362;-1.518;2024-01-11T07:58:41;7.07;;;1.98;;
24153;SDS011;12312;53.362;-1.518;2024-01-11T08:01:25;8.88;;;1.42;;
24153;SDS011;12312;53.362;-1.518;2024-01-11T08:04:09;5.57;;;2.00;;
24153;SDS011;12312;53.362;-1.518;2024-01-11T08:06:53;3.05;;;1.70;;
24153;SDS011;12312;53.362;-1.518;2024-01-11T08:09:37;4.20;;;1.65;;
24153;SDS011;12312;53.362;-1.518;2024-01-11T08:12:23;2.70;;;1.73;;
24153;SDS011;12312;53.362;-1.518;2024-01-11T08:15:06;5.05;;;1.60;;
24153;SDS011;12312;53.362;-1.518;2024-01-11T08:17:52;9.43;;;2.55;;
24153;SDS011;12312;53.362;-1.518;2024-01-11T08:20:36;7.18;;;1.88;;
24153;SDS011;12312;53.362;-1.518;2024-01-11T08:23:21;6.60;;;2.28;;
24153;SDS011;12312;53.362;-1.518;2024-01-11T08:26:05;6.90;;;2.13;;
24153;SDS011;12312;53.362;-1.518;2024-01-11T08:28:49;16.13;;;2.70;;
24153;SDS011;12312;53.362;-1.518;2024-01-11T08:31:33;6.68;;;2.20;;
24153;SDS011;12312;53.362;-1.518;2024-01-11T08:34:17;4.72;;;1.92;;
24153;SDS011;12312;53.362;-1.518;2024-01-11T08:37:01;8.30;;;3.03;;
24153;SDS011;12312;53.362;-1.518;2024-01-11T08:39:45;5.00;;;2.28;;
24153;SDS011;12312;53.362;-1.518;2024-01-11T08:42:30;6.57;;;2.88;;
24153;SDS011;12312;53.362;-1.518;2024-01-11T08:45:14;11.57;;;2.70;;
24153;SDS011;12312;53.362;-1.518;2024-01-11T08:48:01;6.40;;;2.20;;
24153;SDS011;12312;53.362;-1.518;2024-01-11T08:50:45;10.10;;;3.25;;
24153;SDS011;12312;53.362;-1.518;2024-01-11T08:53:29;5.53;;;2.42;;
24153;SDS011;12312;53.362;-1.518;2024-01-11T08:56:13;7.63;;;1.90;;
24153;SDS011;12312;53.362;-1.518;2024-01-11T08:58:59;5.82;;;2.50;;
24153;SDS011;12312;53.362;-1.518;2024-01-11T09:01:43;6.15;;;2.35;;
24153;SDS011;12312;53.362;-1.518;2024-01-11T09:04:27;6.25;;;3.08;;
24153;SDS011;12312;53.362;-1.518;2024-01-11T09:07:13;6.32;;;2.63;;
24153;SDS011;12312;53.362;-1.518;2024-01-11T09:09:58;12.52;;;3.15;;
24153;SDS011;12312;53.362;-1.518;2024-01-11T09:12:42;5.72;;;2.35;;
24153;SDS011;12312;53.362;-1.518;2024-01-11T09:15:26;7.63;;;3.25;;
24153;SDS011;12312;53.362;-1.518;2024-01-11T09:18:10;7.95;;;2.38;;
24153;SDS011;12312;53.362;-1.518;2024-01-11T09:20:54;5.03;;;2.05;;
24153;SDS011;12312;53.362;-1.518;2024-01-11T09:23:40;3.22;;;2.05;;
24153;SDS011;12312;53.362;-1.518;2024-01-11T09:26:24;5.18;;;2.42;;
24153;SDS011;12312;53.362;-1.518;2024-01-11T09:29:08;6.97;;;3.28;;
24153;SDS011;12312;53.362;-1.518;2024-01-11T09:31:52;5.28;;;3.15;;
24153;SDS011;12312;53.362;-1.518;2024-01-11T09:34:36;8.55;;;3.47;;
24153;SDS011;12312;53.362;-1.518;2024-01-11T09:37:20;9.60;;;4.28;;
24153;SDS011;12312;53.362;-1.518;2024-01-11T09:40:04;8.35;;;3.55;;
24153;SDS011;12312;53.362;-1.518;2024-01-11T09:42:52;10.05;;;4.10;;
24153;SDS011;12312;53.362;-1.518;2024-01-11T09:45:36;7.07;;;4.25;;
24153;SDS011;12312;53.362;-1.518;2024-01-11T09:48:21;7.80;;;3.70;;
24153;SDS011;12312;53.362;-1.518;2024-01-11T09:51:07;16.98;;;3.65;;
24153;SDS011;12312;53.362;-1.518;2024-01-11T09:53:52;13.68;;;4.70;;
24153;SDS011;12312;53.362;-1.518;2024-01-11T09:56:38;9.25;;;3.78;;
24153;SDS011;12312;53.362;-1.518;2024-01-11T09:59:23;9.25;;;3.70;;
24153;SDS011;12312;53.362;-1.518;2024-01-11T10:02:07;9.25;;;4.63;;
24153;SDS011;12312;53.362;-1.518;2024-01-11T10:07:37;9.30;;;2.88;;
24153;SDS011;12312;53.362;-1.518;2024-01-11T10:10:21;4.03;;;2.30;;
24153;SDS011;12312;53.362;-1.518;2024-01-11T10:13:05;6.40;;;3.70;;
24153;SDS011;12312;53.362;-1.518;2024-01-11T10:15:49;7.57;;;3.50;;
24153;SDS011;12312;53.362;-1.518;2024-01-11T10:18:33;6.72;;;3.08;;
24153;SDS011;12312;53.362;-1.518;2024-01-11T10:21:17;8.75;;;3.53;;
24153;SDS011;12312;53.362;-1.518;2024-01-11T10:24:02;7.43;;;3.33;;
24153;SDS011;12312;53.362;-1.518;2024-01-11T10:26:48;15.40;;;3.58;;
24153;SDS011;12312;53.362;-1.518;2024-01-11T10:29:32;7.72;;;3.80;;
24153;SDS011;12312;53.362;-1.518;2024-01-11T10:32:17;12.13;;;3.30;;
24153;SDS011;12312;53.362;-1.518;2024-01-11T10:35:01;9.18;;;3.33;;
24153;SDS011;12312;53.362;-1.518;2024-01-11T10:37:49;11.00;;;3.90;;
24153;SDS011;12312;53.362;-1.518;2024-01-11T10:40:34;16.92;;;4.30;;
24153;SDS011;12312;53.362;-1.518;2024-01-11T10:43:19;8.98;;;3.42;;
24153;SDS011;12312;53.362;-1.518;2024-01-11T10:46:05;14.30;;;3.83;;
24153;SDS011;12312;53.362;-1.518;2024-01-11T10:48:51;32.58;;;4.93;;
24153;SDS011;12312;53.362;-1.518;2024-01-11T10:51:37;20.15;;;3.63;;
24153;SDS011;12312;53.362;-1.518;2024-01-11T10:54:22;20.77;;;3.45;;
24153;SDS011;12312;53.362;-1.518;2024-01-11T10:57:07;11.63;;;4.27;;
24153;SDS011;12312;53.362;-1.518;2024-01-11T10:59:52;9.68;;;3.53;;
24153;SDS011;12312;53.362;-1.518;2024-01-11T11:02:37;13.77;;;4.17;;
24153;SDS011;12312;53.362;-1.518;2024-01-11T11:05:22;10.23;;;3.92;;
24153;SDS011;12312;53.362;-1.518;2024-01-11T11:08:08;12.50;;;3.67;;
24153;SDS011;12312;53.362;-1.518;2024-01-11T11:10:56;12.15;;;3.97;;
24153;SDS011;12312;53.362;-1.518;2024-01-11T11:13:41;9.60;;;3.45;;
24153;SDS011;12312;53.362;-1.518;2024-01-11T11:16:25;7.20;;;3.45;;
24153;SDS011;12312;53.362;-1.518;2024-01-11T11:19:09;12.38;;;3.28;;
24153;SDS011;12312;53.362;-1.518;2024-01-11T11:24:39;17.50;;;2.90;;
24153;SDS011;12312;53.362;-1.518;2024-01-11T11:27:23;12.90;;;2.78;;
24153;SDS011;12312;53.362;-1.518;2024-01-11T11:30:07;13.20;;;2.80;;
24153;SDS011;12312;53.362;-1.518;2024-01-11T11:32:52;12.23;;;3.08;;
24153;SDS011;12312;53.362;-1.518;2024-01-11T11:35:38;5.15;;;2.58;;
24153;SDS011;12312;53.362;-1.518;2024-01-11T11:38:23;11.65;;;2.17;;
24153;SDS011;12312;53.362;-1.518;2024-01-11T11:41:07;12.82;;;2.47;;
24153;SDS011;12312;53.362;-1.518;2024-01-11T11:43:51;13.68;;;3.20;;
24153;SDS011;12312;53.362;-1.518;2024-01-11T11:46:35;6.20;;;2.03;;
24153;SDS011;12312;53.362;-1.518;2024-01-11T11:49:19;7.82;;;2.75;;
24153;SDS011;12312;53.362;-1.518;2024-01-11T11:52:03;14.95;;;3.40;;
24153;SDS011;12312;53.362;-1.518;2024-01-11T11:54:47;7.80;;;3.15;;
24153;SDS011;12312;53.362;-1.518;2024-01-11T11:57:31;17.10;;;4.20;;
24153;SDS011;12312;53.362;-1.518;2024-01-11T12:00:16;12.73;;;3.55;;
24153;SDS011;12312;53.362;-1.518;2024-01-11T12:03:00;6.45;;;2.83;;
24153;SDS011;12312;53.362;-1.518;2024-01-11T12:05:47;13.52;;;3.45;;
24153;SDS011;12312;53.362;-1.518;2024-01-11T12:08:31;9.23;;;3.08;;
24153;SDS011;12312;53.362;-1.518;2024-01-11T12:11:17;11.43;;;3.20;;
24153;SDS011;12312;53.362;-1.518;2024-01-11T12:16:45;15.00;;;3.20;;
24153;SDS011;12312;53.362;-1.518;2024-01-11T12:19:39;5.70;;;3.20;;
24153;SDS011;12312;53.362;-1.518;2024-01-11T12:22:23;9.68;;;3.30;;
24153;SDS011;12312;53.362;-1.518;2024-01-11T12:25:07;11.68;;;3.22;;
24153;SDS011;12312;53.362;-1.518;2024-01-11T12:27:51;13.32;;;4.10;;
24153;SDS011;12312;53.362;-1.518;2024-01-11T12:30:35;12.50;;;4.45;;
24153;SDS011;12312;53.362;-1.518;2024-01-11T12:33:19;11.98;;;3.15;;
24153;SDS011;12312;53.362;-1.518;2024-01-11T12:36:05;9.18;;;3.28;;
24153;SDS011;12312;53.362;-1.518;2024-01-11T12:38:49;11.23;;;3.22;;
24153;SDS011;12312;53.362;-1.518;2024-01-11T12:41:33;10.88;;;2.88;;
24153;SDS011;12312;53.362;-1.518;2024-01-11T12:44:17;12.98;;;3.17;;
24153;SDS011;12312;53.362;-1.518;2024-01-11T12:47:03;22.38;;;4.63;;
24153;SDS011;12312;53.362;-1.518;2024-01-11T12:49:49;15.52;;;3.45;;
24153;SDS011;12312;53.362;-1.518;2024-01-11T12:52:35;6.15;;;1.63;;
24153;SDS011;12312;53.362;-1.518;2024-01-11T12:55:19;15.18;;;2.65;;
24153;SDS011;12312;53.362;-1.518;2024-01-11T12:58:06;8.63;;;2.38;;
24153;SDS011;12312;53.362;-1.518;2024-01-11T13:00:51;7.07;;;2.17;;
24153;SDS011;12312;53.362;-1.518;2024-01-11T13:03:35;12.02;;;2.17;;
24153;SDS011;12312;53.362;-1.518;2024-01-11T13:06:19;6.88;;;2.05;;
24153;SDS011;12312;53.362;-1.518;2024-01-11T13:09:03;11.63;;;2.80;;
24153;SDS011;12312;53.362;-1.518;2024-01-11T13:11:48;17.05;;;2.50;;
24153;SDS011;12312;53.362;-1.518;2024-01-11T13:14:32;33.22;;;3.50;;
24153;SDS011;12312;53.362;-1.518;2024-01-11T13:17:16;3.47;;;1.65;;
24153;SDS011;12312;53.362;-1.518;2024-01-11T13:20:00;17.63;;;2.53;;
24153;SDS011;12312;53.362;-1.518;2024-01-11T13:22:45;6.82;;;1.65;;
24153;SDS011;12312;53.362;-1.518;2024-01-11T13:25:29;16.55;;;3.30;;
24153;SDS011;12312;53.362;-1.518;2024-01-11T13:28:13;18.38;;;3.92;;
24153;SDS011;12312;53.362;-1.518;2024-01-11T13:30:57;18.60;;;3.30;;
24153;SDS011;12312;53.362;-1.518;2024-01-11T13:33:41;13.27;;;2.92;;
24153;SDS011;12312;53.362;-1.518;2024-01-11T13:36:25;8.15;;;2.22;;
24153;SDS011;12312;53.362;-1.518;2024-01-11T13:39:09;17.75;;;3.35;;
24153;SDS011;12312;53.362;-1.518;2024-01-11T13:41:53;8.60;;;2.08;;
24153;SDS011;12312;53.362;-1.518;2024-01-11T13:44:38;13.32;;;2.33;;
24153;SDS011;12312;53.362;-1.518;2024-01-11T13:47:22;11.18;;;1.95;;
24153;SDS011;12312;53.362;-1.518;2024-01-11T13:50:06;7.53;;;2.05;;
24153;SDS011;12312;53.362;-1.518;2024-01-11T13:52:51;7.75;;;2.25;;
24153;SDS011;12312;53.362;-1.518;2024-01-11T13:55:35;12.55;;;2.38;;
24153;SDS011;12312;53.362;-1.518;2024-01-11T13:58:23;33.85;;;4.72;;
24153;SDS011;12312;53.362;-1.518;2024-01-11T14:01:07;5.13;;;2.13;;
24153;SDS011;12312;53.362;-1.518;2024-01-11T14:03:51;11.40;;;2.20;;
24153;SDS011;12312;53.362;-1.518;2024-01-11T14:06:35;9.98;;;2.42;;
24153;SDS011;12312;53.362;-1.518;2024-01-11T14:09:19;15.85;;;2.58;;
24153;SDS011;12312;53.362;-1.518;2024-01-11T14:12:02;6.30;;;1.50;;
24153;SDS011;12312;53.362;-1.518;2024-01-11T14:14:46;9.93;;;2.13;;
24153;SDS011;12312;53.362;-1.518;2024-01-11T14:17:31;7.13;;;1.60;;
24153;SDS011;12312;53.362;-1.518;2024-01-11T14:20:16;16.10;;;2.33;;
24153;SDS011;12312;53.362;-1.518;2024-01-11T14:23:00;8.23;;;1.33;;
24153;SDS011;12312;53.362;-1.518;2024-01-11T14:25:44;6.07;;;1.23;;
24153;SDS011;12312;53.362;-1.518;2024-01-11T14:28:28;14.35;;;2.78;;
24153;SDS011;12312;53.362;-1.518;2024-01-11T14:31:12;8.30;;;1.85;;
24153;SDS011;12312;53.362;-1.518;2024-01-11T14:33:56;9.25;;;1.85;;
24153;SDS011;12312;53.362;-1.518;2024-01-11T14:36:40;8.57;;;2.90;;
24153;SDS011;12312;53.362;-1.518;2024-01-11T14:39:24;11.80;;;2.25;;
24153;SDS011;12312;53.362;-1.518;2024-01-11T14:42:09;4.93;;;1.60;;
24153;SDS011;12312;53.362;-1.518;2024-01-11T14:44:53;3.42;;;1.33;;
24153;SDS011;12312;53.362;-1.518;2024-01-11T14:47:37;7.95;;;1.65;;
24153;SDS011;12312;53.362;-1.518;2024-01-11T14:50:21;9.32;;;3.00;;
24153;SDS011;12312;53.362;-1.518;2024-01-11T14:53:05;11.27;;;2.45;;
24153;SDS011;12312;53.362;-1.518;2024-01-11T14:55:49;10.32;;;2.10;;
24153;SDS011;12312;53.362;-1.518;2024-01-11T14:58:33;6.30;;;1.73;;
24153;SDS011;12312;53.362;-1.518;2024-01-11T15:01:17;11.00;;;1.90;;
24153;SDS011;12312;53.362;-1.518;2024-01-11T15:04:01;4.05;;;1.42;;
24153;SDS011;12312;53.362;-1.518;2024-01-11T15:06:45;11.35;;;2.58;;
24153;SDS011;12312;53.362;-1.518;2024-01-11T15:09:29;10.73;;;2.58;;
24153;SDS011;12312;53.362;-1.518;2024-01-11T15:12:13;8.05;;;3.10;;
24153;SDS011;12312;53.362;-1.518;2024-01-11T15:14:57;13.73;;;2.47;;
24153;SDS011;12312;53.362;-1.518;2024-01-11T15:17:42;7.03;;;2.38;;
24153;SDS011;12312;53.362;-1.518;2024-01-11T15:20:26;6.40;;;1.63;;
24153;SDS011;12312;53.362;-1.518;2024-01-11T15:23:09;7.30;;;1.83;;
24153;SDS011;12312;53.362;-1.518;2024-01-11T15:25:53;6.40;;;1.85;;
24153;SDS011;12312;53.362;-1.518;2024-01-11T15:28:37;9.90;;;2.10;;
24153;SDS011;12312;53.362;-1.518;2024-01-11T15:31:21;12.32;;;1.75;;
24153;SDS011;12312;53.362;-1.518;2024-01-11T15:34:05;13.25;;;2.75;;
24153;SDS011;12312;53.362;-1.518;2024-01-11T15:36:51;11.57;;;2.47;;
24153;SDS011;12312;53.362;-1.518;2024-01-11T15:39:35;22.48;;;3.40;;
24153;SDS011;12312;53.362;-1.518;2024-01-11T15:42:19;10.45;;;1.50;;
24153;SDS011;12312;53.362;-1.518;2024-01-11T15:45:03;8.13;;;1.90;;
24153;SDS011;12312;53.362;-1.518;2024-01-11T15:47:47;6.80;;;2.20;;
24153;SDS011;12312;53.362;-1.518;2024-01-11T15:50:31;5.28;;;1.13;;
24153;SDS011;12312;53.362;-1.518;2024-01-11T15:53:15;7.53;;;1.38;;
24153;SDS011;12312;53.362;-1.518;2024-01-11T15:55:58;10.65;;;2.00;;
24153;SDS011;12312;53.362;-1.518;2024-01-11T15:58:42;13.68;;;1.70;;
24153;SDS011;12312;53.362;-1.518;2024-01-11T16:01:26;10.45;;;1.75;;
24153;SDS011;12312;53.362;-1.518;2024-01-11T16:04:10;5.68;;;1.10;;
24153;SDS011;12312;53.362;-1.518;2024-01-11T16:06:54;7.88;;;1.65;;
24153;SDS011;12312;53.362;-1.518;2024-01-11T16:09:38;3.95;;;1.50;;
24153;SDS011;12312;53.362;-1.518;2024-01-11T16:12:22;4.65;;;1.77;;
24153;SDS011;12312;53.362;-1.518;2024-01-11T16:15:07;6.90;;;1.50;;
24153;SDS011;12312;53.362;-1.518;2024-01-11T16:17:52;7.22;;;2.03;;
24153;SDS011;12312;53.362;-1.518;2024-01-11T16:20:35;4.00;;;1.48;;
24153;SDS011;12312;53.362;-1.518;2024-01-11T16:23:20;10.93;;;2.22;;